createdAt,value
2019-01-03T00:00:07.454Z,6.00
2019-01-03T00:03:00.174Z,6.00
2019-01-03T00:05:45.696Z,5.90
2019-01-03T00:08:31.760Z,6.00
2019-01-03T00:11:24.518Z,5.90
2019-01-03T00:14:14.237Z,5.90
2019-01-03T00:16:59.786Z,5.80
2019-01-03T00:19:45.690Z,5.80
2019-01-03T00:22:31.434Z,5.70
2019-01-03T00:25:30.535Z,5.90
2019-01-03T00:28:35.989Z,5.80
2019-01-03T00:31:23.435Z,5.60
2019-01-03T00:34:09.271Z,5.70
2019-01-03T00:37:06.922Z,5.80
2019-01-03T00:39:53.735Z,5.80
2019-01-03T00:42:54.574Z,5.90
2019-01-03T00:45:40.240Z,5.90
2019-01-03T00:48:26.250Z,5.80
2019-01-03T00:51:16.176Z,5.70
2019-01-03T00:54:02.984Z,5.80
2019-01-03T00:56:49.798Z,5.80
2019-01-03T00:59:39.387Z,5.80
2019-01-03T01:02:16.946Z,5.90
2019-01-03T01:05:02.223Z,5.80
2019-01-03T01:07:58.296Z,5.70
2019-01-03T01:10:47.987Z,5.70
2019-01-03T01:13:34.847Z,5.70
2019-01-03T01:16:18.212Z,5.70
2019-01-03T01:19:04.234Z,5.70
2019-01-03T01:21:49.734Z,5.70
2019-01-03T01:24:35.553Z,5.70
2019-01-03T01:27:28.437Z,5.60
2019-01-03T01:30:14.074Z,5.60
2019-01-03T01:33:03.609Z,5.50
2019-01-03T01:35:40.887Z,5.50
2019-01-03T01:38:22.194Z,5.50
2019-01-03T01:41:09.116Z,5.60
2019-01-03T01:43:54.764Z,5.70
2019-01-03T01:46:56.816Z,5.70
2019-01-03T01:49:42.138Z,5.70
2019-01-03T01:52:40.999Z,5.60
2019-01-03T01:55:27.834Z,5.70
2019-01-03T01:58:26.714Z,5.70
2019-01-03T02:01:12.178Z,5.80
2019-01-03T02:04:07.751Z,5.70
2019-01-03T02:06:49.504Z,5.80
2019-01-03T02:09:34.649Z,5.70
2019-01-03T02:12:17.918Z,5.80
2019-01-03T02:15:04.735Z,5.70
2019-01-03T02:17:53.217Z,5.70
2019-01-03T02:20:48.740Z,5.80
2019-01-03T02:23:44.506Z,5.80
2019-01-03T02:26:46.473Z,5.80
2019-01-03T02:29:32.261Z,5.80
2019-01-03T02:32:22.330Z,5.60
2019-01-03T02:35:09.255Z,5.70
2019-01-03T02:37:56.072Z,5.70
2019-01-03T02:40:41.418Z,5.70
2019-01-03T02:43:39.421Z,5.70
2019-01-03T02:46:32.226Z,5.70
2019-01-03T02:49:17.721Z,5.70
2019-01-03T02:52:03.610Z,5.70
2019-01-03T02:54:48.788Z,5.60
2019-01-03T02:57:53.581Z,5.70
2019-01-03T03:00:43.446Z,5.60
2019-01-03T03:03:22.905Z,5.60
2019-01-03T03:06:08.296Z,5.50
2019-01-03T03:08:54.861Z,5.50
2019-01-03T03:11:44.410Z,5.50
2019-01-03T03:14:31.252Z,5.40
2019-01-03T03:17:16.526Z,5.30
2019-01-03T03:20:05.995Z,5.30
2019-01-03T03:22:57.801Z,5.30
2019-01-03T03:25:44.736Z,5.30
2019-01-03T03:28:34.629Z,5.20
2019-01-03T03:31:36.196Z,5.20
2019-01-03T03:34:37.937Z,5.20
2019-01-03T03:37:24.846Z,5.00
2019-01-03T03:40:29.562Z,5.00
2019-01-03T03:43:16.826Z,5.10
2019-01-03T03:46:06.318Z,5.10
2019-01-03T03:48:53.156Z,5.10
2019-01-03T03:51:40.076Z,5.10
2019-01-03T03:54:25.450Z,5.00
2019-01-03T03:57:11.177Z,4.90
2019-01-03T03:59:56.350Z,4.80
2019-01-03T04:02:41.585Z,4.70
2019-01-03T04:05:28.454Z,4.70
2019-01-03T04:08:24.544Z,4.70
2019-01-03T04:11:10.054Z,4.60
2019-01-03T04:13:56.599Z,4.60
2019-01-03T04:16:49.418Z,4.60
2019-01-03T04:19:45.912Z,4.60
2019-01-03T04:22:37.106Z,4.60
2019-01-03T04:25:21.872Z,4.50
2019-01-03T04:28:07.548Z,4.50
2019-01-03T04:30:54.024Z,4.40
2019-01-03T04:33:43.857Z,4.40
2019-01-03T04:36:26.536Z,4.50
2019-01-03T04:39:19.142Z,4.50
2019-01-03T04:42:04.699Z,4.50
2019-01-03T04:44:46.151Z,4.60
2019-01-03T04:47:33.079Z,4.50
2019-01-03T04:50:38.238Z,4.50
2019-01-03T04:53:40.101Z,4.50
2019-01-03T04:56:26.915Z,4.40
2019-01-03T04:59:16.766Z,4.40
2019-01-03T05:02:05.183Z,4.40
2019-01-03T05:04:52.119Z,4.40
2019-01-03T05:07:41.871Z,4.30
2019-01-03T05:10:23.328Z,4.30
2019-01-03T05:13:04.981Z,4.30
2019-01-03T05:16:09.823Z,4.20
2019-01-03T05:18:59.630Z,4.20
2019-01-03T05:21:46.559Z,4.20
2019-01-03T05:24:45.101Z,4.30
2019-01-03T05:27:31.907Z,4.30
2019-01-03T05:30:18.386Z,4.30
2019-01-03T05:33:09.111Z,4.20
2019-01-03T05:35:59.499Z,4.20
2019-01-03T05:38:52.325Z,4.20
2019-01-03T05:41:37.969Z,4.20
2019-01-03T05:44:24.904Z,4.20
2019-01-03T05:47:17.351Z,4.10
2019-01-03T05:50:10.460Z,4.10
2019-01-03T05:53:15.472Z,4.10
2019-01-03T05:56:08.029Z,4.10
2019-01-03T05:58:54.795Z,4.10
2019-01-03T06:01:56.805Z,4.10
2019-01-03T06:04:43.637Z,4.10
2019-01-03T06:07:30.445Z,4.00
2019-01-03T06:10:31.066Z,4.00
2019-01-03T06:13:14.998Z,4.00
2019-01-03T06:16:07.747Z,3.90
2019-01-03T06:18:53.471Z,3.90
2019-01-03T06:21:40.352Z,4.00
2019-01-03T06:24:25.794Z,3.90
2019-01-03T06:27:12.693Z,3.90
2019-01-03T06:29:57.853Z,3.90
2019-01-03T06:32:53.429Z,3.90
2019-01-03T06:35:39.093Z,3.90
2019-01-03T06:38:31.735Z,3.90
2019-01-03T06:41:23.081Z,3.80
2019-01-03T06:44:08.705Z,3.50
2019-01-03T06:47:13.805Z,3.50
2019-01-03T06:49:59.278Z,3.60
2019-01-03T06:52:49.513Z,3.60
2019-01-03T06:55:31.519Z,3.70
2019-01-03T06:58:16.975Z,3.50
2019-01-03T07:01:02.341Z,3.70
2019-01-03T07:03:54.954Z,3.70
2019-01-03T07:06:44.335Z,3.80
2019-01-03T07:09:29.790Z,3.80
2019-01-03T07:12:22.831Z,3.80
2019-01-03T07:15:08.447Z,3.70
2019-01-03T07:18:13.190Z,3.80
2019-01-03T07:20:58.563Z,3.70
2019-01-03T07:23:51.398Z,3.70
2019-01-03T07:26:44.145Z,3.80
2019-01-03T07:29:29.685Z,3.80
2019-01-03T07:32:16.578Z,3.70
2019-01-03T07:35:03.386Z,3.70
2019-01-03T07:37:50.327Z,3.70
2019-01-03T07:40:32.793Z,3.70
2019-01-03T07:43:19.950Z,3.90
2019-01-03T07:46:24.672Z,3.80
2019-01-03T07:49:29.750Z,3.70
2019-01-03T07:52:15.515Z,3.50
2019-01-03T07:55:11.896Z,3.40
2019-01-03T07:57:57.900Z,3.60
2019-01-03T08:00:43.314Z,3.60
2019-01-03T08:03:24.347Z,3.50
2019-01-03T08:06:02.506Z,3.60
2019-01-03T08:09:01.106Z,3.70
2019-01-03T08:11:46.560Z,3.60
2019-01-03T08:14:35.259Z,3.70
2019-01-03T08:17:20.966Z,3.80
2019-01-03T08:20:13.302Z,3.70
2019-01-03T08:23:08.301Z,3.80
2019-01-03T08:26:04.005Z,3.80
2019-01-03T08:28:50.801Z,3.80
2019-01-03T08:31:25.549Z,3.90
2019-01-03T08:34:15.483Z,4.00
2019-01-03T08:37:00.686Z,3.90
2019-01-03T08:39:53.375Z,3.90
2019-01-03T08:42:39.005Z,3.80
2019-01-03T08:45:24.678Z,3.80
2019-01-03T08:48:11.781Z,4.00
2019-01-03T08:51:01.860Z,4.00
2019-01-03T08:53:47.372Z,4.00
2019-01-03T08:56:42.656Z,4.00
2019-01-03T08:59:29.552Z,4.10
2019-01-03T09:02:15.455Z,4.10
2019-01-03T09:05:01.496Z,4.20
2019-01-03T09:07:47.092Z,4.00
2019-01-03T09:10:39.570Z,3.60
2019-01-03T09:13:44.796Z,3.80
2019-01-03T09:16:43.712Z,4.00
2019-01-03T09:19:36.629Z,4.10
2019-01-03T09:22:25.927Z,4.20
2019-01-03T09:25:12.742Z,4.30
2019-01-03T09:27:58.310Z,4.30
2019-01-03T09:30:48.255Z,4.30
2019-01-03T09:33:50.560Z,4.00
2019-01-03T09:36:30.604Z,4.10
2019-01-03T09:39:14.091Z,4.20
2019-01-03T09:41:59.939Z,4.40
2019-01-03T09:44:56.112Z,4.50
2019-01-03T09:47:23.506Z,4.60
2019-01-03T09:49:50.831Z,4.60
2019-01-03T09:52:18.269Z,4.50
2019-01-03T09:54:45.740Z,4.40
2019-01-03T09:57:13.148Z,4.70
2019-01-03T09:59:40.582Z,4.70
2019-01-03T10:02:07.992Z,4.80
2019-01-03T10:04:35.766Z,4.80
2019-01-03T10:07:03.138Z,4.70
2019-01-03T10:09:30.486Z,4.60
2019-01-03T10:11:57.786Z,4.20
2019-01-03T10:14:25.178Z,3.70
2019-01-03T10:16:52.544Z,3.30
2019-01-03T10:19:19.948Z,3.40
2019-01-03T10:21:47.353Z,3.60
2019-01-03T10:24:14.646Z,3.80
2019-01-03T10:26:42.112Z,4.30
2019-01-03T10:29:09.506Z,4.00
2019-01-03T10:31:36.932Z,3.30
2019-01-03T10:34:04.526Z,3.60
2019-01-03T10:36:32.130Z,3.50
2019-01-03T10:38:59.651Z,3.90
2019-01-03T10:41:27.237Z,4.20
2019-01-03T10:43:54.775Z,4.30
2019-01-03T10:46:22.293Z,4.60
2019-01-03T10:48:49.821Z,4.70
2019-01-03T10:51:17.382Z,4.70
2019-01-03T10:53:44.879Z,4.60
2019-01-03T10:56:12.400Z,4.60
2019-01-03T10:58:40.379Z,4.60
2019-01-03T11:01:07.764Z,4.80
2019-01-03T11:03:35.248Z,4.90
2019-01-03T11:06:02.988Z,5.20
2019-01-03T11:08:30.411Z,5.30
2019-01-03T11:11:02.124Z,5.20
2019-01-03T11:13:27.226Z,5.20
2019-01-03T11:15:54.568Z,5.00
2019-01-03T11:18:22.399Z,5.10
2019-01-03T11:20:49.800Z,5.30
2019-01-03T11:23:17.515Z,5.30
2019-01-03T11:25:44.810Z,5.50
2019-01-03T11:28:12.238Z,5.60
2019-01-03T11:30:39.616Z,5.70
2019-01-03T11:33:07.013Z,5.70
2019-01-03T11:35:34.399Z,5.80
2019-01-03T11:38:01.814Z,6.00
2019-01-03T11:40:29.218Z,5.90
2019-01-03T11:42:56.673Z,5.90
2019-01-03T11:45:24.072Z,6.00
2019-01-03T11:47:51.728Z,5.90
2019-01-03T11:50:19.052Z,6.00
2019-01-03T11:52:46.469Z,5.90
2019-01-03T11:55:13.900Z,5.80
2019-01-03T11:57:41.339Z,5.80
2019-01-03T12:00:09.292Z,5.80
2019-01-03T12:02:36.660Z,6.00
2019-01-03T12:05:04.498Z,6.20
2019-01-03T12:07:31.849Z,6.30
2019-01-03T12:09:59.319Z,6.10
2019-01-03T12:12:26.733Z,5.90
2019-01-03T12:14:54.167Z,5.70
2019-01-03T12:17:21.943Z,5.50
2019-01-03T12:19:49.414Z,5.60
2019-01-03T12:22:17.206Z,5.70
2019-01-03T12:24:44.634Z,5.90
2019-01-03T12:27:12.395Z,5.60
2019-01-03T12:29:40.200Z,5.40
2019-01-03T12:32:07.635Z,5.70
2019-01-03T12:34:35.045Z,5.70
2019-01-03T12:37:02.426Z,5.80
2019-01-03T12:39:29.856Z,5.80
2019-01-03T12:41:57.269Z,6.00
2019-01-03T12:44:24.698Z,6.30
2019-01-03T12:46:52.368Z,6.10
2019-01-03T12:49:20.091Z,6.30
2019-01-03T12:51:47.523Z,6.70
2019-01-03T12:54:14.949Z,7.10
2019-01-03T12:56:42.626Z,7.10
2019-01-03T12:59:09.987Z,7.30
2019-01-03T13:01:37.422Z,7.50
2019-01-03T13:04:04.890Z,7.60
2019-01-03T13:06:32.266Z,7.50
2019-01-03T13:08:59.727Z,7.60
2019-01-03T13:11:27.111Z,7.50
2019-01-03T13:13:54.537Z,7.30
2019-01-03T13:16:21.825Z,7.10
2019-01-03T13:18:49.214Z,6.80
2019-01-03T13:21:16.633Z,6.90
2019-01-03T13:23:44.069Z,7.00
2019-01-03T13:26:11.780Z,7.00
2019-01-03T13:28:39.202Z,6.70
2019-01-03T13:31:06.613Z,6.80
2019-01-03T13:33:34.062Z,7.00
2019-01-03T13:36:01.490Z,7.00
2019-01-03T13:38:28.907Z,7.30
2019-01-03T13:40:56.289Z,7.40
2019-01-03T13:43:23.702Z,7.30
2019-01-03T13:45:51.129Z,7.40
2019-01-03T13:48:18.463Z,7.50
2019-01-03T13:50:45.963Z,7.50
2019-01-03T13:53:13.627Z,7.40
2019-01-03T13:55:41.517Z,7.00
2019-01-03T13:58:08.903Z,7.10
2019-01-03T14:00:36.624Z,7.20
2019-01-03T14:03:04.231Z,6.90
2019-01-03T14:05:31.670Z,7.10
2019-01-03T14:07:59.295Z,7.00
2019-01-03T14:10:26.751Z,6.90
2019-01-03T14:12:54.187Z,7.00
2019-01-03T14:15:21.955Z,7.00
2019-01-03T14:17:49.298Z,6.70
2019-01-03T14:20:16.620Z,6.90
2019-01-03T14:22:44.079Z,7.10
2019-01-03T14:25:11.496Z,7.20
2019-01-03T14:27:38.906Z,6.70
2019-01-03T14:30:08.334Z,6.40
2019-01-03T14:32:35.742Z,6.20
2019-01-03T14:35:03.079Z,5.90
2019-01-03T14:37:30.499Z,6.20
2019-01-03T14:39:57.893Z,6.20
2019-01-03T14:42:25.359Z,6.50
2019-01-03T14:44:52.766Z,6.70
2019-01-03T14:47:20.213Z,6.60
2019-01-03T14:49:47.622Z,6.40
2019-01-03T14:52:14.993Z,6.40
2019-01-03T14:54:42.437Z,5.90
2019-01-03T14:57:09.889Z,6.20
2019-01-03T14:59:37.252Z,6.50
2019-01-03T15:02:04.706Z,6.60
2019-01-03T15:04:32.166Z,6.60
2019-01-03T15:06:59.901Z,6.50
2019-01-03T15:09:27.335Z,6.70
2019-01-03T15:11:54.790Z,6.70
2019-01-03T15:14:22.225Z,6.80
2019-01-03T15:16:49.687Z,6.80
2019-01-03T15:19:17.511Z,6.70
2019-01-03T15:21:44.965Z,6.60
2019-01-03T15:24:12.391Z,6.20
2019-01-03T15:26:39.734Z,5.90
2019-01-03T15:29:07.168Z,5.80
2019-01-03T15:31:34.852Z,6.10
2019-01-03T15:34:02.521Z,6.20
2019-01-03T15:36:29.971Z,6.30
2019-01-03T15:38:57.729Z,6.40
2019-01-03T15:41:25.175Z,6.40
2019-01-03T15:43:52.630Z,6.50
2019-01-03T15:46:20.098Z,6.40
2019-01-03T15:48:47.578Z,6.50
2019-01-03T15:51:15.318Z,6.60
2019-01-03T15:53:42.716Z,6.40
2019-01-03T15:56:10.206Z,6.30
2019-01-03T15:58:37.609Z,6.40
2019-01-03T16:01:06.907Z,6.50
2019-01-03T16:03:34.341Z,6.60
2019-01-03T16:06:02.061Z,6.50
2019-01-03T16:08:30.120Z,6.20
2019-01-03T16:10:57.490Z,6.30
2019-01-03T16:13:25.020Z,6.10
2019-01-03T16:15:52.833Z,6.20
2019-01-03T16:18:20.312Z,6.30
2019-01-03T16:20:47.786Z,6.40
2019-01-03T16:23:15.542Z,6.50
2019-01-03T16:25:42.923Z,6.20
2019-01-03T16:28:10.338Z,6.30
2019-01-03T16:30:37.698Z,6.40
2019-01-03T16:33:05.370Z,6.20
2019-01-03T16:35:32.823Z,5.50
2019-01-03T16:38:00.274Z,5.60
2019-01-03T16:40:27.682Z,4.70
2019-01-03T16:42:55.080Z,4.50
2019-01-03T16:45:22.505Z,4.50
2019-01-03T16:47:49.972Z,4.90
2019-01-03T16:50:17.451Z,4.70
2019-01-03T16:52:44.911Z,4.40
2019-01-03T16:55:12.379Z,4.60
2019-01-03T16:57:39.803Z,4.70
2019-01-03T17:00:09.053Z,5.10
2019-01-03T17:02:36.518Z,5.30
2019-01-03T17:05:04.511Z,5.20
2019-01-03T17:07:31.966Z,5.00
2019-01-03T17:09:59.363Z,4.60
2019-01-03T17:12:26.790Z,5.00
2019-01-03T17:14:54.117Z,5.20
2019-01-03T17:17:21.927Z,5.10
2019-01-03T17:19:49.374Z,5.30
2019-01-03T17:22:16.779Z,4.60
2019-01-03T17:24:44.255Z,4.30
2019-01-03T17:27:11.730Z,4.10
2019-01-03T17:29:39.433Z,4.40
2019-01-03T17:32:06.874Z,4.50
2019-01-03T17:34:34.310Z,4.80
2019-01-03T17:37:01.751Z,5.30
2019-01-03T17:39:29.210Z,5.30
2019-01-03T17:41:56.662Z,5.30
2019-01-03T17:44:24.122Z,5.10
2019-01-03T17:46:52.237Z,4.80
2019-01-03T17:49:19.686Z,5.20
2019-01-03T17:51:47.526Z,4.90
2019-01-03T17:54:16.506Z,4.60
2019-01-03T17:56:43.949Z,4.70
2019-01-03T17:59:11.749Z,5.00
2019-01-03T18:01:39.285Z,5.00
2019-01-03T18:04:06.710Z,4.80
2019-01-03T18:06:34.164Z,5.00
2019-01-03T18:09:01.651Z,5.10
2019-01-03T18:11:29.095Z,5.50
2019-01-03T18:13:56.468Z,5.40
2019-01-03T18:16:23.923Z,5.40
2019-01-03T18:18:51.553Z,5.50
2019-01-03T18:21:19.038Z,5.70
2019-01-03T18:23:46.837Z,5.80
2019-01-03T18:26:14.319Z,5.90
2019-01-03T18:28:42.097Z,6.00
2019-01-03T18:31:09.545Z,6.00
2019-01-03T18:33:37.373Z,6.10
2019-01-03T18:36:05.105Z,6.20
2019-01-03T18:38:32.857Z,6.20
2019-01-03T18:41:00.187Z,6.30
2019-01-03T18:43:27.726Z,6.30
2019-01-03T18:45:55.175Z,6.30
2019-01-03T18:48:22.676Z,6.30
2019-01-03T18:50:50.461Z,6.40
2019-01-03T18:53:17.881Z,6.30
2019-01-03T18:55:45.310Z,6.40
2019-01-03T18:58:12.803Z,6.40
2019-01-03T19:00:40.349Z,6.40
2019-01-03T19:03:07.775Z,6.30
2019-01-03T19:05:35.245Z,6.30
2019-01-03T19:08:02.772Z,6.30
2019-01-03T19:10:30.241Z,6.20
2019-01-03T19:12:57.694Z,6.20
2019-01-03T19:15:25.163Z,5.90
2019-01-03T19:17:53.049Z,5.90
2019-01-03T19:20:20.608Z,5.90
2019-01-03T19:22:48.129Z,5.90
2019-01-03T19:25:17.457Z,5.90
2019-01-03T19:27:44.948Z,6.10
2019-01-03T19:30:12.520Z,6.20
2019-01-03T19:32:41.415Z,6.20
2019-01-03T19:35:09.423Z,6.20
2019-01-03T19:37:36.912Z,6.10
2019-01-03T19:40:05.157Z,6.20
2019-01-03T19:42:32.678Z,6.20
2019-01-03T19:45:00.287Z,6.20
2019-01-03T19:47:27.833Z,6.30
2019-01-03T19:49:55.391Z,6.20
2019-01-03T19:52:22.926Z,6.30
2019-01-03T19:54:50.753Z,6.30
2019-01-03T19:57:18.160Z,6.30
2019-01-03T19:59:45.621Z,6.30
2019-01-03T20:02:13.205Z,6.30
2019-01-03T20:04:40.802Z,6.30
2019-01-03T20:07:08.656Z,6.30
2019-01-03T20:09:36.142Z,6.30
2019-01-03T20:12:03.689Z,6.30
2019-01-03T20:14:31.186Z,6.30
2019-01-03T20:16:58.635Z,6.20
2019-01-03T20:19:26.111Z,6.20
2019-01-03T20:21:54.305Z,6.20
2019-01-03T20:24:22.450Z,6.20
2019-01-03T20:26:49.977Z,6.20
2019-01-03T20:29:17.596Z,6.20
2019-01-03T20:31:45.191Z,6.20
2019-01-03T20:34:12.698Z,6.30
2019-01-03T20:36:40.266Z,6.30
2019-01-03T20:39:08.140Z,6.20
2019-01-03T20:41:36.512Z,6.20
2019-01-03T20:44:04.008Z,6.20
2019-01-03T20:46:31.916Z,6.10
2019-01-03T20:48:59.440Z,6.10
2019-01-03T20:51:27.168Z,6.20
2019-01-03T20:53:54.965Z,6.20
2019-01-03T20:56:22.510Z,6.20
2019-01-03T20:58:49.977Z,6.20
2019-01-03T21:01:17.488Z,6.10
2019-01-03T21:03:45.002Z,6.20
2019-01-03T21:06:12.602Z,6.10
2019-01-03T21:08:40.172Z,5.80
2019-01-03T21:11:07.661Z,5.80
2019-01-03T21:13:35.587Z,5.80
2019-01-03T21:16:03.189Z,6.00
2019-01-03T21:18:30.667Z,5.80
2019-01-03T21:20:58.150Z,5.80
2019-01-03T21:23:25.557Z,5.80
2019-01-03T21:25:53.086Z,5.80
2019-01-03T21:28:20.617Z,5.90
2019-01-03T21:30:48.158Z,6.20
2019-01-03T21:33:15.677Z,6.10
2019-01-03T21:35:43.216Z,6.10
2019-01-03T21:38:10.793Z,6.20
2019-01-03T21:40:38.350Z,6.20
2019-01-03T21:43:05.878Z,6.30
2019-01-03T21:45:33.385Z,6.40
2019-01-03T21:48:01.248Z,6.30
2019-01-03T21:50:28.752Z,6.20
2019-01-03T21:52:56.736Z,6.20
2019-01-03T21:55:24.546Z,5.70
2019-01-03T21:57:52.472Z,5.90
2019-01-03T22:00:20.506Z,6.10
2019-01-03T22:02:47.977Z,6.20
2019-01-03T22:05:15.902Z,6.20
2019-01-03T22:07:44.512Z,6.20
2019-01-03T22:10:12.760Z,6.30
2019-01-03T22:12:40.345Z,6.40
2019-01-03T22:15:09.790Z,6.50
2019-01-03T22:17:37.978Z,6.50
2019-01-03T22:20:08.630Z,6.50
2019-01-03T22:22:37.083Z,6.40
2019-01-03T22:25:05.374Z,6.30
2019-01-03T22:27:33.231Z,6.40
2019-01-03T22:30:01.219Z,6.30
2019-01-03T22:32:28.950Z,6.30
2019-01-03T22:34:56.680Z,6.40
2019-01-03T22:37:24.350Z,6.40
2019-01-03T22:39:52.010Z,6.40
2019-01-03T22:42:19.760Z,6.30
2019-01-03T22:44:47.684Z,6.30
2019-01-03T22:47:15.228Z,6.30
2019-01-03T22:49:43.042Z,6.30
2019-01-03T22:52:10.876Z,6.20
2019-01-03T22:54:38.401Z,6.00
2019-01-03T22:57:06.150Z,5.90
2019-01-03T22:59:33.732Z,5.80
2019-01-03T23:02:01.517Z,6.00
2019-01-03T23:04:29.254Z,5.90
2019-01-03T23:06:57.322Z,5.90
2019-01-03T23:09:24.959Z,5.90
2019-01-03T23:11:52.407Z,6.00
2019-01-03T23:14:19.886Z,5.90
2019-01-03T23:16:47.437Z,6.00
2019-01-03T23:19:15.081Z,6.10
2019-01-03T23:21:42.929Z,6.20
2019-01-03T23:24:10.765Z,6.20
2019-01-03T23:26:38.586Z,6.30
2019-01-03T23:29:06.141Z,6.20
2019-01-03T23:31:33.781Z,6.20
2019-01-03T23:34:01.391Z,6.20
2019-01-03T23:36:28.920Z,6.10
2019-01-03T23:38:56.782Z,6.10
2019-01-03T23:41:24.215Z,6.00
2019-01-03T23:43:51.918Z,6.10
2019-01-03T23:46:19.494Z,6.10
2019-01-03T23:48:47.024Z,5.90
2019-01-03T23:51:14.564Z,6.00
2019-01-03T23:53:42.099Z,5.90
2019-01-03T23:56:09.720Z,6.00
2019-01-03T23:58:37.237Z,5.80
